Terminal Aerodrome Forecast
Issued by NWS

Current Version | Previous Version | Text Only | Print | Product List | Glossary On
Versions: 1 2 3 4 5 6 7 8 9 10 11 12 13 14 15 16 17 18 19 20 21 22 23 24 25
000
FTUS41 KRLX 300808 AAA
TAFCKB
TAF AMD
KCKB 300808Z 3008/3106 00000KT 1/2SM FG VV001
     FM301200 00000KT 3SM BR SCT001 SCT090
     FM301300 00000KT P6SM SCT090
     FM301600 27003KT P6SM VCTS BKN040CB
     FM302100 30005KT P6SM SCT045
     FM310300 32002KT P6SM SCT250=

USA.gov is the U.S. government's official web portal to all federal, state and local government web resources and services.